Aviation Digital Data Service (ADDS)

Output produced by METARs form (0207 UTC 11 December 2016)
found at http://aviationweather.gov/adds/metars/
 
KJXN 102348Z 1100/1124 22006KT 6SM -SN BR OVC035 
     FM110230 20005KT 3SM -SN BR OVC025 
     FM110400 18007KT 1SM -SN BR OVC012 
     FM111200 16011KT 3/4SM -SN BR OVC009 
     FM111500 17011KT 1/2SM SN FG OVC005